Redding, CA

10:02 PM PDT on June 02, 2015 (GMT -0700)
Dartmouth Drive | | Change Station
CLOSE
Current Station
Personal Weather Station
Location: Redding, CA
Elevation: 768 ft
Nearby Weather Stations

Elev 768 ft 40.56 °N, 122.43 °W | Updated 2 minutes ago

Mostly Cloudy
Mostly Cloudy
73.8 °F
Feels Like 77 °F
N
9.9
Wind Variable Wind from West

Today
High -- | Low -- °F
--% Chance of Precip.
Yesterday
High -- | Low -- °F
Precip. -- in
5:40 AM 8:34 PM
Full, 100% visible
Pressure 29.87 in
Visibility 10.0 miles
Clouds Scattered Clouds 8500 ft
Heat Index 77 °F
Dew Point 50 °F
Humidity 43%
Rainfall 0.00 in
Snow Depth Not available.
UV 0 out of 12
Pollen 6.60 out of 12
Air Quality Not available.
Flu Activity Sporadic
METAR KRDD 030453Z AUTO 32007KT 10SM SCT085 25/03 A2988 RMK AO2 SLP113 T02500033

More Conditions Fewer Conditions

Pressure 29.87 in
Visibility 10.0 miles
Clouds Scattered Clouds 8500 ft
Heat Index 77 °F
Dew Point 50 °F
Humidity 43%
Rainfall 0.00 in
Snow Depth Not available.
UV 0 out of 12
Pollen 6.60 out of 12
Air Quality Not available.
Flu Activity Sporadic
METAR KRDD 030453Z AUTO 32007KT 10SM SCT085 25/03 A2988 RMK AO2 SLP113 T02500033

More Conditions Fewer Conditions

10-Day Weather Forecast

×

Almanac

Astronomy

Jun. 02, 2015 Rise Set
Actual Time
Civil Twilight
Nautical Twilight
Astronomical Twilight
Moon
Length of Visible Light
Length of Day
Tomorrow will be .
, % of the Moon is Illuminated

Today's Extremes

State Highs State Lows

Community

WunderPhotos

Upload Photos

1,826,168 photos uploaded!

WunderBlogs® & News

Nearby

Air Quality

  Air Quality AQ Index Pollutant
Not available.

Snow Depth

Station Depth Elevation

Earthquake Activity

City Distance Mag. Time & Date
Minimum magnitude displayed is 2.5.

Coastal Water Temperatures

Place Temperature

Stations

Nearby Weather Stations

Station Location Temp. Windchill Dew Point Humidity Wind Precip. Elev Updated Type